sensor_id;sensor_type;location;lat;lon;timestamp;P1;durP1;ratioP1;P2;durP2;ratioP2
8293;SDS011;4185;41.506;24.938;2023-07-08T00:00:07;9.83;;;6.63;;
8293;SDS011;4185;41.506;24.938;2023-07-08T00:02:37;6.87;;;5.60;;
8293;SDS011;4185;41.506;24.938;2023-07-08T00:05:05;8.63;;;6.17;;
8293;SDS011;4185;41.506;24.938;2023-07-08T00:07:33;11.27;;;5.47;;
8293;SDS011;4185;41.506;24.938;2023-07-08T00:10:00;7.80;;;5.77;;
8293;SDS011;4185;41.506;24.938;2023-07-08T00:12:27;7.87;;;5.90;;
8293;SDS011;4185;41.506;24.938;2023-07-08T00:14:54;10.03;;;6.43;;
8293;SDS011;4185;41.506;24.938;2023-07-08T00:17:21;7.37;;;5.83;;
8293;SDS011;4185;41.506;24.938;2023-07-08T00:19:49;10.10;;;6.43;;
8293;SDS011;4185;41.506;24.938;2023-07-08T00:22:19;10.57;;;6.43;;
8293;SDS011;4185;41.506;24.938;2023-07-08T00:24:46;10.57;;;7.40;;
8293;SDS011;4185;41.506;24.938;2023-07-08T00:27:12;11.27;;;6.50;;
8293;SDS011;4185;41.506;24.938;2023-07-08T00:29:39;9.20;;;6.47;;
8293;SDS011;4185;41.506;24.938;2023-07-08T00:32:10;7.03;;;5.80;;
8293;SDS011;4185;41.506;24.938;2023-07-08T00:34:38;7.53;;;5.93;;
8293;SDS011;4185;41.506;24.938;2023-07-08T00:37:08;8.70;;;6.13;;
8293;SDS011;4185;41.506;24.938;2023-07-08T00:39:37;9.83;;;6.57;;
8293;SDS011;4185;41.506;24.938;2023-07-08T00:42:06;10.73;;;6.60;;
8293;SDS011;4185;41.506;24.938;2023-07-08T00:44:41;7.87;;;5.80;;
8293;SDS011;4185;41.506;24.938;2023-07-08T00:47:11;8.13;;;6.63;;
8293;SDS011;4185;41.506;24.938;2023-07-08T00:49:40;7.83;;;5.87;;
8293;SDS011;4185;41.506;24.938;2023-07-08T00:52:17;7.63;;;6.10;;
8293;SDS011;4185;41.506;24.938;2023-07-08T00:54:45;8.00;;;5.60;;
8293;SDS011;4185;41.506;24.938;2023-07-08T00:57:12;10.30;;;6.07;;
8293;SDS011;4185;41.506;24.938;2023-07-08T00:59:40;9.33;;;5.77;;
8293;SDS011;4185;41.506;24.938;2023-07-08T01:02:12;7.63;;;6.10;;
8293;SDS011;4185;41.506;24.938;2023-07-08T01:04:43;9.00;;;5.80;;
8293;SDS011;4185;41.506;24.938;2023-07-08T01:07:16;9.80;;;6.23;;
8293;SDS011;4185;41.506;24.938;2023-07-08T01:09:46;9.53;;;6.17;;
8293;SDS011;4185;41.506;24.938;2023-07-08T01:12:16;11.50;;;7.07;;
8293;SDS011;4185;41.506;24.938;2023-07-08T01:14:48;9.53;;;6.40;;
8293;SDS011;4185;41.506;24.938;2023-07-08T01:17:18;8.73;;;6.03;;
8293;SDS011;4185;41.506;24.938;2023-07-08T01:19:45;12.60;;;6.87;;
8293;SDS011;4185;41.506;24.938;2023-07-08T01:22:14;8.53;;;6.40;;
8293;SDS011;4185;41.506;24.938;2023-07-08T01:24:41;8.60;;;6.63;;
8293;SDS011;4185;41.506;24.938;2023-07-08T01:27:11;9.17;;;6.80;;
8293;SDS011;4185;41.506;24.938;2023-07-08T01:29:40;8.40;;;6.13;;
8293;SDS011;4185;41.506;24.938;2023-07-08T01:32:09;9.23;;;6.37;;
8293;SDS011;4185;41.506;24.938;2023-07-08T01:34:43;9.00;;;6.67;;
8293;SDS011;4185;41.506;24.938;2023-07-08T01:37:26;10.43;;;6.37;;
8293;SDS011;4185;41.506;24.938;2023-07-08T01:40:13;12.87;;;7.17;;
8293;SDS011;4185;41.506;24.938;2023-07-08T01:42:41;8.83;;;6.37;;
8293;SDS011;4185;41.506;24.938;2023-07-08T01:45:10;9.07;;;6.50;;
8293;SDS011;4185;41.506;24.938;2023-07-08T01:47:38;8.37;;;7.00;;
8293;SDS011;4185;41.506;24.938;2023-07-08T01:50:05;9.63;;;6.47;;
8293;SDS011;4185;41.506;24.938;2023-07-08T01:52:35;9.50;;;6.70;;
8293;SDS011;4185;41.506;24.938;2023-07-08T01:55:02;8.37;;;6.70;;
8293;SDS011;4185;41.506;24.938;2023-07-08T01:57:30;10.37;;;7.03;;
8293;SDS011;4185;41.506;24.938;2023-07-08T01:59:57;9.73;;;6.93;;
8293;SDS011;4185;41.506;24.938;2023-07-08T02:02:24;8.93;;;6.50;;
8293;SDS011;4185;41.506;24.938;2023-07-08T02:04:51;11.83;;;7.13;;
8293;SDS011;4185;41.506;24.938;2023-07-08T02:07:18;9.50;;;7.10;;
8293;SDS011;4185;41.506;24.938;2023-07-08T02:09:46;12.53;;;6.70;;
8293;SDS011;4185;41.506;24.938;2023-07-08T02:12:13;12.23;;;7.50;;
8293;SDS011;4185;41.506;24.938;2023-07-08T02:14:39;9.73;;;6.73;;
8293;SDS011;4185;41.506;24.938;2023-07-08T02:17:06;9.23;;;7.03;;
8293;SDS011;4185;41.506;24.938;2023-07-08T02:19:33;12.23;;;6.27;;
8293;SDS011;4185;41.506;24.938;2023-07-08T02:22:00;11.83;;;7.13;;
8293;SDS011;4185;41.506;24.938;2023-07-08T02:24:26;8.97;;;5.93;;
8293;SDS011;4185;41.506;24.938;2023-07-08T02:26:54;9.03;;;6.27;;
8293;SDS011;4185;41.506;24.938;2023-07-08T02:29:22;8.27;;;6.70;;
8293;SDS011;4185;41.506;24.938;2023-07-08T02:31:49;10.20;;;6.70;;
8293;SDS011;4185;41.506;24.938;2023-07-08T02:34:16;8.63;;;6.13;;
8293;SDS011;4185;41.506;24.938;2023-07-08T02:36:42;8.83;;;7.03;;
8293;SDS011;4185;41.506;24.938;2023-07-08T02:39:09;9.20;;;7.50;;
8293;SDS011;4185;41.506;24.938;2023-07-08T02:41:36;10.43;;;7.00;;
8293;SDS011;4185;41.506;24.938;2023-07-08T02:44:05;11.33;;;7.20;;
8293;SDS011;4185;41.506;24.938;2023-07-08T02:46:31;9.73;;;7.00;;
8293;SDS011;4185;41.506;24.938;2023-07-08T02:48:58;9.97;;;6.90;;
8293;SDS011;4185;41.506;24.938;2023-07-08T02:51:25;12.87;;;7.50;;
8293;SDS011;4185;41.506;24.938;2023-07-08T02:53:52;9.27;;;7.30;;
8293;SDS011;4185;41.506;24.938;2023-07-08T02:56:18;8.33;;;6.13;;
8293;SDS011;4185;41.506;24.938;2023-07-08T02:58:46;11.70;;;7.17;;
8293;SDS011;4185;41.506;24.938;2023-07-08T03:01:14;11.33;;;8.03;;
8293;SDS011;4185;41.506;24.938;2023-07-08T03:03:42;8.40;;;6.90;;
8293;SDS011;4185;41.506;24.938;2023-07-08T03:06:10;8.70;;;7.20;;
8293;SDS011;4185;41.506;24.938;2023-07-08T03:08:37;10.27;;;7.37;;
8293;SDS011;4185;41.506;24.938;2023-07-08T03:11:04;12.47;;;7.20;;
8293;SDS011;4185;41.506;24.938;2023-07-08T03:13:33;10.63;;;6.83;;
8293;SDS011;4185;41.506;24.938;2023-07-08T03:16:01;8.60;;;6.60;;
8293;SDS011;4185;41.506;24.938;2023-07-08T03:18:35;9.67;;;7.07;;
8293;SDS011;4185;41.506;24.938;2023-07-08T03:21:04;11.47;;;6.77;;
8293;SDS011;4185;41.506;24.938;2023-07-08T03:23:30;8.37;;;6.90;;
8293;SDS011;4185;41.506;24.938;2023-07-08T03:25:57;12.57;;;7.53;;
8293;SDS011;4185;41.506;24.938;2023-07-08T03:28:24;11.70;;;7.23;;
8293;SDS011;4185;41.506;24.938;2023-07-08T03:30:52;9.83;;;7.43;;
8293;SDS011;4185;41.506;24.938;2023-07-08T03:33:19;10.30;;;7.37;;
8293;SDS011;4185;41.506;24.938;2023-07-08T03:35:47;11.47;;;7.57;;
8293;SDS011;4185;41.506;24.938;2023-07-08T03:38:14;11.30;;;7.77;;
8293;SDS011;4185;41.506;24.938;2023-07-08T03:40:41;9.67;;;6.77;;
8293;SDS011;4185;41.506;24.938;2023-07-08T03:43:09;8.80;;;6.77;;
8293;SDS011;4185;41.506;24.938;2023-07-08T03:45:36;8.93;;;6.90;;
8293;SDS011;4185;41.506;24.938;2023-07-08T03:48:03;9.20;;;6.80;;
8293;SDS011;4185;41.506;24.938;2023-07-08T03:50:30;10.63;;;7.50;;
8293;SDS011;4185;41.506;24.938;2023-07-08T03:52:58;10.90;;;7.70;;
8293;SDS011;4185;41.506;24.938;2023-07-08T03:55:25;8.80;;;7.20;;
8293;SDS011;4185;41.506;24.938;2023-07-08T03:57:53;10.97;;;7.70;;
8293;SDS011;4185;41.506;24.938;2023-07-08T04:00:20;13.27;;;7.13;;
8293;SDS011;4185;41.506;24.938;2023-07-08T04:02:47;9.93;;;7.37;;
8293;SDS011;4185;41.506;24.938;2023-07-08T04:05:14;12.07;;;8.07;;
8293;SDS011;4185;41.506;24.938;2023-07-08T04:07:41;10.53;;;7.63;;
8293;SDS011;4185;41.506;24.938;2023-07-08T04:10:10;10.90;;;7.90;;
8293;SDS011;4185;41.506;24.938;2023-07-08T04:12:36;11.77;;;7.90;;
8293;SDS011;4185;41.506;24.938;2023-07-08T04:15:05;8.73;;;7.33;;
8293;SDS011;4185;41.506;24.938;2023-07-08T04:17:34;10.30;;;7.20;;
8293;SDS011;4185;41.506;24.938;2023-07-08T04:20:02;9.43;;;7.10;;
8293;SDS011;4185;41.506;24.938;2023-07-08T04:22:29;12.70;;;6.87;;
8293;SDS011;4185;41.506;24.938;2023-07-08T04:24:56;12.47;;;7.67;;
8293;SDS011;4185;41.506;24.938;2023-07-08T04:27:24;10.33;;;7.40;;
8293;SDS011;4185;41.506;24.938;2023-07-08T04:29:51;11.90;;;8.30;;
8293;SDS011;4185;41.506;24.938;2023-07-08T04:32:17;11.47;;;7.10;;
8293;SDS011;4185;41.506;24.938;2023-07-08T04:34:44;11.50;;;8.00;;
8293;SDS011;4185;41.506;24.938;2023-07-08T04:37:11;11.60;;;7.57;;
8293;SDS011;4185;41.506;24.938;2023-07-08T04:39:44;11.63;;;7.50;;
8293;SDS011;4185;41.506;24.938;2023-07-08T04:42:11;10.60;;;6.33;;
8293;SDS011;4185;41.506;24.938;2023-07-08T04:44:44;10.13;;;6.60;;
8293;SDS011;4185;41.506;24.938;2023-07-08T04:47:10;12.20;;;7.63;;
8293;SDS011;4185;41.506;24.938;2023-07-08T04:49:38;11.43;;;7.60;;
8293;SDS011;4185;41.506;24.938;2023-07-08T04:52:06;8.77;;;6.93;;
8293;SDS011;4185;41.506;24.938;2023-07-08T04:54:32;13.57;;;7.37;;
8293;SDS011;4185;41.506;24.938;2023-07-08T04:56:59;13.40;;;7.57;;
8293;SDS011;4185;41.506;24.938;2023-07-08T04:59:26;11.13;;;6.90;;
8293;SDS011;4185;41.506;24.938;2023-07-08T05:01:54;10.40;;;7.53;;
8293;SDS011;4185;41.506;24.938;2023-07-08T05:04:21;8.00;;;6.70;;
8293;SDS011;4185;41.506;24.938;2023-07-08T05:06:48;10.17;;;7.90;;
8293;SDS011;4185;41.506;24.938;2023-07-08T05:09:16;10.63;;;7.93;;
8293;SDS011;4185;41.506;24.938;2023-07-08T05:11:43;9.30;;;7.00;;
8293;SDS011;4185;41.506;24.938;2023-07-08T05:14:10;9.50;;;7.10;;
8293;SDS011;4185;41.506;24.938;2023-07-08T05:16:38;10.10;;;7.83;;
8293;SDS011;4185;41.506;24.938;2023-07-08T05:19:07;8.60;;;7.20;;
8293;SDS011;4185;41.506;24.938;2023-07-08T05:21:34;10.50;;;7.30;;
8293;SDS011;4185;41.506;24.938;2023-07-08T05:24:00;9.50;;;7.13;;
8293;SDS011;4185;41.506;24.938;2023-07-08T05:26:27;9.93;;;7.40;;
8293;SDS011;4185;41.506;24.938;2023-07-08T05:28:54;9.70;;;6.90;;
8293;SDS011;4185;41.506;24.938;2023-07-08T05:31:21;8.57;;;7.00;;
8293;SDS011;4185;41.506;24.938;2023-07-08T05:33:47;7.57;;;6.23;;
8293;SDS011;4185;41.506;24.938;2023-07-08T05:36:16;8.80;;;6.80;;
8293;SDS011;4185;41.506;24.938;2023-07-08T05:38:42;9.13;;;6.63;;
8293;SDS011;4185;41.506;24.938;2023-07-08T05:41:09;9.27;;;7.03;;
8293;SDS011;4185;41.506;24.938;2023-07-08T05:43:37;12.07;;;7.47;;
8293;SDS011;4185;41.506;24.938;2023-07-08T05:46:04;10.60;;;6.67;;
8293;SDS011;4185;41.506;24.938;2023-07-08T05:48:30;10.43;;;7.27;;
8293;SDS011;4185;41.506;24.938;2023-07-08T05:50:57;9.70;;;6.63;;
8293;SDS011;4185;41.506;24.938;2023-07-08T05:53:25;9.90;;;6.93;;
8293;SDS011;4185;41.506;24.938;2023-07-08T05:55:52;9.73;;;6.90;;
8293;SDS011;4185;41.506;24.938;2023-07-08T05:58:19;8.93;;;6.77;;
8293;SDS011;4185;41.506;24.938;2023-07-08T06:00:46;7.30;;;6.50;;
8293;SDS011;4185;41.506;24.938;2023-07-08T06:03:13;8.57;;;6.53;;
8293;SDS011;4185;41.506;24.938;2023-07-08T06:05:39;8.03;;;6.30;;
8293;SDS011;4185;41.506;24.938;2023-07-08T06:08:06;7.60;;;6.60;;
8293;SDS011;4185;41.506;24.938;2023-07-08T06:10:35;9.27;;;6.70;;
8293;SDS011;4185;41.506;24.938;2023-07-08T06:13:08;11.03;;;6.50;;
8293;SDS011;4185;41.506;24.938;2023-07-08T06:15:34;8.03;;;6.50;;
8293;SDS011;4185;41.506;24.938;2023-07-08T06:18:01;8.27;;;7.30;;
8293;SDS011;4185;41.506;24.938;2023-07-08T06:20:28;8.70;;;6.93;;
8293;SDS011;4185;41.506;24.938;2023-07-08T06:22:56;8.77;;;6.90;;
8293;SDS011;4185;41.506;24.938;2023-07-08T06:25:22;7.30;;;6.23;;
8293;SDS011;4185;41.506;24.938;2023-07-08T06:27:50;8.63;;;6.80;;
8293;SDS011;4185;41.506;24.938;2023-07-08T06:30:17;9.80;;;6.17;;
8293;SDS011;4185;41.506;24.938;2023-07-08T06:32:44;7.33;;;6.13;;
8293;SDS011;4185;41.506;24.938;2023-07-08T06:35:11;7.40;;;6.60;;
8293;SDS011;4185;41.506;24.938;2023-07-08T06:37:38;8.60;;;6.30;;
8293;SDS011;4185;41.506;24.938;2023-07-08T06:40:05;6.87;;;5.40;;
8293;SDS011;4185;41.506;24.938;2023-07-08T06:42:32;8.27;;;6.03;;
8293;SDS011;4185;41.506;24.938;2023-07-08T06:45:01;7.87;;;5.47;;
8293;SDS011;4185;41.506;24.938;2023-07-08T06:47:28;8.53;;;5.60;;
8293;SDS011;4185;41.506;24.938;2023-07-08T06:49:55;8.10;;;6.03;;
8293;SDS011;4185;41.506;24.938;2023-07-08T06:52:21;9.10;;;5.73;;
8293;SDS011;4185;41.506;24.938;2023-07-08T06:54:48;7.27;;;5.73;;
8293;SDS011;4185;41.506;24.938;2023-07-08T06:57:15;7.73;;;5.67;;
8293;SDS011;4185;41.506;24.938;2023-07-08T06:59:42;6.10;;;5.50;;
8293;SDS011;4185;41.506;24.938;2023-07-08T07:02:10;8.23;;;5.50;;
8293;SDS011;4185;41.506;24.938;2023-07-08T07:04:37;7.27;;;5.37;;
8293;SDS011;4185;41.506;24.938;2023-07-08T07:07:04;6.80;;;5.73;;
8293;SDS011;4185;41.506;24.938;2023-07-08T07:09:31;15.27;;;9.33;;
8293;SDS011;4185;41.506;24.938;2023-07-08T07:11:58;10.50;;;8.20;;
8293;SDS011;4185;41.506;24.938;2023-07-08T07:14:25;10.30;;;6.73;;
8293;SDS011;4185;41.506;24.938;2023-07-08T07:16:52;13.17;;;9.87;;
8293;SDS011;4185;41.506;24.938;2023-07-08T07:19:20;16.60;;;9.97;;
8293;SDS011;4185;41.506;24.938;2023-07-08T07:21:47;11.60;;;7.90;;
8293;SDS011;4185;41.506;24.938;2023-07-08T07:24:14;14.13;;;9.10;;
8293;SDS011;4185;41.506;24.938;2023-07-08T07:26:41;13.20;;;8.57;;
8293;SDS011;4185;41.506;24.938;2023-07-08T07:29:08;21.33;;;11.87;;
8293;SDS011;4185;41.506;24.938;2023-07-08T07:31:35;56.50;;;28.03;;
8293;SDS011;4185;41.506;24.938;2023-07-08T07:34:04;29.37;;;17.17;;
8293;SDS011;4185;41.506;24.938;2023-07-08T07:36:33;27.07;;;16.57;;
8293;SDS011;4185;41.506;24.938;2023-07-08T07:39:00;18.03;;;11.70;;
8293;SDS011;4185;41.506;24.938;2023-07-08T07:41:27;14.57;;;10.20;;
8293;SDS011;4185;41.506;24.938;2023-07-08T07:43:54;18.33;;;12.03;;
8293;SDS011;4185;41.506;24.938;2023-07-08T07:46:21;7.63;;;5.70;;
8293;SDS011;4185;41.506;24.938;2023-07-08T07:48:48;8.67;;;6.50;;
8293;SDS011;4185;41.506;24.938;2023-07-08T07:51:15;9.93;;;7.87;;
8293;SDS011;4185;41.506;24.938;2023-07-08T07:53:43;6.83;;;5.40;;
8293;SDS011;4185;41.506;24.938;2023-07-08T07:56:10;9.17;;;5.37;;
8293;SDS011;4185;41.506;24.938;2023-07-08T07:58:37;6.47;;;5.50;;
8293;SDS011;4185;41.506;24.938;2023-07-08T08:01:04;6.67;;;4.90;;
8293;SDS011;4185;41.506;24.938;2023-07-08T08:03:31;8.23;;;5.40;;
8293;SDS011;4185;41.506;24.938;2023-07-08T08:05:58;6.40;;;5.43;;
8293;SDS011;4185;41.506;24.938;2023-07-08T08:08:25;6.10;;;4.70;;
8293;SDS011;4185;41.506;24.938;2023-07-08T08:10:54;5.17;;;4.67;;
8293;SDS011;4185;41.506;24.938;2023-07-08T08:13:20;5.97;;;5.13;;
8293;SDS011;4185;41.506;24.938;2023-07-08T08:15:47;6.03;;;4.93;;
8293;SDS011;4185;41.506;24.938;2023-07-08T08:18:14;5.47;;;4.87;;
8293;SDS011;4185;41.506;24.938;2023-07-08T08:20:41;6.30;;;4.70;;
8293;SDS011;4185;41.506;24.938;2023-07-08T08:23:08;7.40;;;5.37;;
8293;SDS011;4185;41.506;24.938;2023-07-08T08:25:34;6.87;;;5.50;;
8293;SDS011;4185;41.506;24.938;2023-07-08T08:28:02;4.70;;;4.20;;
8293;SDS011;4185;41.506;24.938;2023-07-08T08:30:31;5.27;;;4.37;;
8293;SDS011;4185;41.506;24.938;2023-07-08T08:32:58;5.53;;;4.80;;
8293;SDS011;4185;41.506;24.938;2023-07-08T08:35:25;7.17;;;5.30;;
8293;SDS011;4185;41.506;24.938;2023-07-08T08:37:52;6.63;;;5.30;;
8293;SDS011;4185;41.506;24.938;2023-07-08T08:40:20;6.43;;;5.43;;
8293;SDS011;4185;41.506;24.938;2023-07-08T08:42:50;9.67;;;6.47;;
8293;SDS011;4185;41.506;24.938;2023-07-08T08:45:21;7.37;;;5.43;;
8293;SDS011;4185;41.506;24.938;2023-07-08T08:47:51;6.70;;;5.23;;
8293;SDS011;4185;41.506;24.938;2023-07-08T08:50:24;9.30;;;6.20;;
8293;SDS011;4185;41.506;24.938;2023-07-08T08:52:55;5.63;;;4.83;;
8293;SDS011;4185;41.506;24.938;2023-07-08T08:55:25;7.40;;;5.27;;
8293;SDS011;4185;41.506;24.938;2023-07-08T08:57:55;7.83;;;5.57;;
8293;SDS011;4185;41.506;24.938;2023-07-08T09:00:31;6.60;;;5.67;;
8293;SDS011;4185;41.506;24.938;2023-07-08T09:03:08;6.40;;;5.33;;
8293;SDS011;4185;41.506;24.938;2023-07-08T09:05:40;5.97;;;4.90;;
8293;SDS011;4185;41.506;24.938;2023-07-08T09:08:10;7.77;;;4.80;;
8293;SDS011;4185;41.506;24.938;2023-07-08T09:10:42;7.57;;;5.37;;
8293;SDS011;4185;41.506;24.938;2023-07-08T09:13:15;6.43;;;5.13;;
8293;SDS011;4185;41.506;24.938;2023-07-08T09:15:49;5.53;;;4.73;;
8293;SDS011;4185;41.506;24.938;2023-07-08T09:18:25;6.10;;;5.03;;
8293;SDS011;4185;41.506;24.938;2023-07-08T09:20:54;6.10;;;5.07;;
8293;SDS011;4185;41.506;24.938;2023-07-08T09:23:24;6.43;;;5.17;;
8293;SDS011;4185;41.506;24.938;2023-07-08T09:25:57;5.17;;;4.37;;
8293;SDS011;4185;41.506;24.938;2023-07-08T09:28:37;6.30;;;5.07;;
8293;SDS011;4185;41.506;24.938;2023-07-08T09:31:07;6.33;;;5.03;;
8293;SDS011;4185;41.506;24.938;2023-07-08T09:33:37;6.37;;;4.97;;
8293;SDS011;4185;41.506;24.938;2023-07-08T09:36:15;6.30;;;5.13;;
8293;SDS011;4185;41.506;24.938;2023-07-08T09:38:46;6.27;;;4.90;;
8293;SDS011;4185;41.506;24.938;2023-07-08T09:41:17;5.67;;;4.80;;
8293;SDS011;4185;41.506;24.938;2023-07-08T09:44:02;6.32;;;5.25;;
8293;SDS011;4185;41.506;24.938;2023-07-08T09:46:40;5.70;;;4.97;;
8293;SDS011;4185;41.506;24.938;2023-07-08T09:49:15;6.82;;;4.85;;
8293;SDS011;4185;41.506;24.938;2023-07-08T09:51:44;6.60;;;5.13;;
8293;SDS011;4185;41.506;24.938;2023-07-08T09:54:11;5.00;;;4.40;;
8293;SDS011;4185;41.506;24.938;2023-07-08T09:56:40;7.37;;;4.70;;
8293;SDS011;4185;41.506;24.938;2023-07-08T09:59:11;5.90;;;4.50;;
8293;SDS011;4185;41.506;24.938;2023-07-08T10:01:41;4.90;;;4.30;;
8293;SDS011;4185;41.506;24.938;2023-07-08T10:04:08;5.73;;;4.50;;
8293;SDS011;4185;41.506;24.938;2023-07-08T10:06:35;4.90;;;4.30;;
8293;SDS011;4185;41.506;24.938;2023-07-08T10:09:03;5.05;;;4.45;;
8293;SDS011;4185;41.506;24.938;2023-07-08T10:11:31;5.90;;;4.43;;
8293;SDS011;4185;41.506;24.938;2023-07-08T10:14:04;5.00;;;4.35;;
8293;SDS011;4185;41.506;24.938;2023-07-08T10:16:36;5.53;;;4.93;;
8293;SDS011;4185;41.506;24.938;2023-07-08T10:19:07;5.30;;;4.38;;
8293;SDS011;4185;41.506;24.938;2023-07-08T10:21:42;5.10;;;4.60;;
8293;SDS011;4185;41.506;24.938;2023-07-08T10:24:23;4.88;;;4.38;;
8293;SDS011;4185;41.506;24.938;2023-07-08T10:27:00;6.03;;;3.95;;
8293;SDS011;4185;41.506;24.938;2023-07-08T10:29:41;6.10;;;4.22;;
8293;SDS011;4185;41.506;24.938;2023-07-08T10:32:22;5.47;;;4.28;;
8293;SDS011;4185;41.506;24.938;2023-07-08T10:35:00;4.63;;;4.13;;
8293;SDS011;4185;41.506;24.938;2023-07-08T10:37:36;5.22;;;3.80;;
8293;SDS011;4185;41.506;24.938;2023-07-08T10:40:16;5.18;;;4.35;;
8293;SDS011;4185;41.506;24.938;2023-07-08T10:42:57;4.90;;;4.28;;
8293;SDS011;4185;41.506;24.938;2023-07-08T10:45:39;5.10;;;4.32;;
8293;SDS011;4185;41.506;24.938;2023-07-08T10:48:16;5.82;;;4.32;;
8293;SDS011;4185;41.506;24.938;2023-07-08T10:51:01;5.18;;;4.43;;
8293;SDS011;4185;41.506;24.938;2023-07-08T10:53:42;4.63;;;4.15;;
8293;SDS011;4185;41.506;24.938;2023-07-08T10:56:21;5.30;;;4.05;;
8293;SDS011;4185;41.506;24.938;2023-07-08T10:59:06;5.00;;;4.47;;
8293;SDS011;4185;41.506;24.938;2023-07-08T11:01:49;6.00;;;4.22;;
8293;SDS011;4185;41.506;24.938;2023-07-08T11:04:30;5.03;;;4.47;;
8293;SDS011;4185;41.506;24.938;2023-07-08T11:07:12;6.55;;;4.43;;
8293;SDS011;4185;41.506;24.938;2023-07-08T11:09:58;5.57;;;4.22;;
8293;SDS011;4185;41.506;24.938;2023-07-08T11:12:31;5.00;;;4.47;;
8293;SDS011;4185;41.506;24.938;2023-07-08T11:15:03;6.20;;;4.70;;
8293;SDS011;4185;41.506;24.938;2023-07-08T11:17:40;4.65;;;4.03;;
8293;SDS011;4185;41.506;24.938;2023-07-08T11:20:15;6.00;;;4.05;;
8293;SDS011;4185;41.506;24.938;2023-07-08T11:22:47;6.72;;;5.32;;
8293;SDS011;4185;41.506;24.938;2023-07-08T11:25:18;6.55;;;5.47;;
8293;SDS011;4185;41.506;24.938;2023-07-08T11:27:48;5.70;;;5.10;;
8293;SDS011;4185;41.506;24.938;2023-07-08T11:30:20;5.95;;;5.35;;
8293;SDS011;4185;41.506;24.938;2023-07-08T11:32:57;6.25;;;5.30;;
8293;SDS011;4185;41.506;24.938;2023-07-08T11:35:32;6.22;;;5.63;;
8293;SDS011;4185;41.506;24.938;2023-07-08T11:38:04;7.03;;;5.45;;
8293;SDS011;4185;41.506;24.938;2023-07-08T11:40:31;6.65;;;5.22;;
8293;SDS011;4185;41.506;24.938;2023-07-08T11:43:15;6.75;;;5.22;;
8293;SDS011;4185;41.506;24.938;2023-07-08T11:45:43;5.40;;;4.90;;
8293;SDS011;4185;41.506;24.938;2023-07-08T11:48:12;7.25;;;5.35;;
8293;SDS011;4185;41.506;24.938;2023-07-08T11:50:42;6.80;;;5.30;;
8293;SDS011;4185;41.506;24.938;2023-07-08T11:53:30;5.95;;;4.95;;
8293;SDS011;4185;41.506;24.938;2023-07-08T11:56:00;6.03;;;4.60;;
8293;SDS011;4185;41.506;24.938;2023-07-08T11:58:30;5.93;;;5.22;;
8293;SDS011;4185;41.506;24.938;2023-07-08T12:01:00;6.07;;;5.28;;
8293;SDS011;4185;41.506;24.938;2023-07-08T12:03:32;6.15;;;5.40;;
8293;SDS011;4185;41.506;24.938;2023-07-08T12:06:01;7.45;;;5.05;;
8293;SDS011;4185;41.506;24.938;2023-07-08T12:08:35;6.22;;;5.35;;
8293;SDS011;4185;41.506;24.938;2023-07-08T12:11:07;4.88;;;4.38;;
8293;SDS011;4185;41.506;24.938;2023-07-08T12:13:37;5.82;;;4.63;;
8293;SDS011;4185;41.506;24.938;2023-07-08T12:16:07;7.13;;;5.20;;
8293;SDS011;4185;41.506;24.938;2023-07-08T12:18:38;6.05;;;4.90;;
8293;SDS011;4185;41.506;24.938;2023-07-08T12:21:11;8.57;;;5.10;;
8293;SDS011;4185;41.506;24.938;2023-07-08T12:23:45;6.30;;;5.15;;
8293;SDS011;4185;41.506;24.938;2023-07-08T12:26:13;5.28;;;4.65;;
8293;SDS011;4185;41.506;24.938;2023-07-08T12:28:40;7.32;;;4.88;;
8293;SDS011;4185;41.506;24.938;2023-07-08T12:31:09;6.53;;;4.72;;
8293;SDS011;4185;41.506;24.938;2023-07-08T12:33:41;7.43;;;4.90;;
8293;SDS011;4185;41.506;24.938;2023-07-08T12:36:10;5.90;;;4.93;;
8293;SDS011;4185;41.506;24.938;2023-07-08T12:38:46;5.20;;;4.38;;
8293;SDS011;4185;41.506;24.938;2023-07-08T12:41:17;5.93;;;4.57;;
8293;SDS011;4185;41.506;24.938;2023-07-08T12:43:45;5.40;;;4.90;;
8293;SDS011;4185;41.506;24.938;2023-07-08T12:46:13;6.10;;;4.82;;
8293;SDS011;4185;41.506;24.938;2023-07-08T12:48:41;4.85;;;4.40;;
8293;SDS011;4185;41.506;24.938;2023-07-08T12:51:10;5.20;;;4.65;;
8293;SDS011;4185;41.506;24.938;2023-07-08T12:53:38;5.13;;;4.63;;
8293;SDS011;4185;41.506;24.938;2023-07-08T12:56:07;4.65;;;4.25;;
8293;SDS011;4185;41.506;24.938;2023-07-08T12:58:36;5.60;;;5.00;;
8293;SDS011;4185;41.506;24.938;2023-07-08T13:01:05;5.95;;;5.32;;
8293;SDS011;4185;41.506;24.938;2023-07-08T13:03:34;5.90;;;5.30;;
8293;SDS011;4185;41.506;24.938;2023-07-08T13:06:03;6.45;;;4.97;;
8293;SDS011;4185;41.506;24.938;2023-07-08T13:08:33;6.07;;;4.90;;
8293;SDS011;4185;41.506;24.938;2023-07-08T13:11:02;5.25;;;4.75;;
8293;SDS011;4185;41.506;24.938;2023-07-08T13:13:32;5.03;;;4.22;;
8293;SDS011;4185;41.506;24.938;2023-07-08T13:16:02;5.35;;;4.07;;
8293;SDS011;4185;41.506;24.938;2023-07-08T13:18:32;3.90;;;3.00;;
8293;SDS011;4185;41.506;24.938;2023-07-08T13:21:00;4.38;;;3.22;;
8293;SDS011;4185;41.506;24.938;2023-07-08T13:23:29;3.22;;;2.58;;
8293;SDS011;4185;41.506;24.938;2023-07-08T13:25:56;3.30;;;2.85;;
8293;SDS011;4185;41.506;24.938;2023-07-08T13:28:23;6.15;;;2.90;;
8293;SDS011;4185;41.506;24.938;2023-07-08T13:30:54;3.80;;;3.10;;
8293;SDS011;4185;41.506;24.938;2023-07-08T13:33:23;3.60;;;3.10;;
8293;SDS011;4185;41.506;24.938;2023-07-08T13:35:51;3.13;;;2.75;;
8293;SDS011;4185;41.506;24.938;2023-07-08T13:38:21;2.60;;;2.40;;
8293;SDS011;4185;41.506;24.938;2023-07-08T13:40:53;3.30;;;2.67;;
8293;SDS011;4185;41.506;24.938;2023-07-08T13:43:22;3.25;;;2.47;;
8293;SDS011;4185;41.506;24.938;2023-07-08T13:45:51;2.65;;;2.20;;
8293;SDS011;4185;41.506;24.938;2023-07-08T13:48:21;3.80;;;2.70;;
8293;SDS011;4185;41.506;24.938;2023-07-08T13:50:53;2.08;;;1.88;;
8293;SDS011;4185;41.506;24.938;2023-07-08T13:53:24;2.58;;;2.38;;
8293;SDS011;4185;41.506;24.938;2023-07-08T13:55:59;2.40;;;2.03;;
8293;SDS011;4185;41.506;24.938;2023-07-08T13:58:28;3.10;;;2.45;;
8293;SDS011;4185;41.506;24.938;2023-07-08T14:00:56;3.08;;;2.40;;
8293;SDS011;4185;41.506;24.938;2023-07-08T14:03:25;2.67;;;2.47;;
8293;SDS011;4185;41.506;24.938;2023-07-08T14:05:52;3.97;;;3.58;;
8293;SDS011;4185;41.506;24.938;2023-07-08T14:08:19;4.57;;;4.10;;
8293;SDS011;4185;41.506;24.938;2023-07-08T14:10:47;4.47;;;3.88;;
8293;SDS011;4185;41.506;24.938;2023-07-08T14:13:14;4.07;;;3.67;;
8293;SDS011;4185;41.506;24.938;2023-07-08T14:15:42;4.45;;;3.88;;
8293;SDS011;4185;41.506;24.938;2023-07-08T14:18:10;3.88;;;3.33;;
8293;SDS011;4185;41.506;24.938;2023-07-08T14:20:39;3.92;;;3.63;;
8293;SDS011;4185;41.506;24.938;2023-07-08T14:23:07;4.47;;;4.07;;
8293;SDS011;4185;41.506;24.938;2023-07-08T14:25:35;3.90;;;3.47;;
8293;SDS011;4185;41.506;24.938;2023-07-08T14:28:02;4.18;;;3.80;;
8293;SDS011;4185;41.506;24.938;2023-07-08T14:30:30;3.85;;;3.55;;
8293;SDS011;4185;41.506;24.938;2023-07-08T14:32:57;4.05;;;3.65;;
8293;SDS011;4185;41.506;24.938;2023-07-08T14:35:25;3.85;;;3.30;;
8293;SDS011;4185;41.506;24.938;2023-07-08T14:37:55;4.95;;;4.28;;
8293;SDS011;4185;41.506;24.938;2023-07-08T14:40:24;6.00;;;3.72;;
8293;SDS011;4185;41.506;24.938;2023-07-08T14:42:55;7.28;;;6.68;;
8293;SDS011;4185;41.506;24.938;2023-07-08T14:45:25;4.03;;;3.72;;
8293;SDS011;4185;41.506;24.938;2023-07-08T14:47:54;3.33;;;2.95;;
8293;SDS011;4185;41.506;24.938;2023-07-08T14:50:21;3.58;;;3.10;;
8293;SDS011;4185;41.506;24.938;2023-07-08T14:52:48;3.55;;;3.05;;
8293;SDS011;4185;41.506;24.938;2023-07-08T14:55:16;5.25;;;3.20;;
8293;SDS011;4185;41.506;24.938;2023-07-08T14:57:43;4.65;;;3.72;;
8293;SDS011;4185;41.506;24.938;2023-07-08T15:00:13;3.33;;;3.03;;
8293;SDS011;4185;41.506;24.938;2023-07-08T15:02:43;4.13;;;2.90;;
8293;SDS011;4185;41.506;24.938;2023-07-08T15:05:15;3.35;;;3.05;;
8293;SDS011;4185;41.506;24.938;2023-07-08T15:07:44;3.40;;;2.70;;
8293;SDS011;4185;41.506;24.938;2023-07-08T15:10:15;3.28;;;2.97;;